• Join FlightAware (Why Join?)
  • Login
  • US Flag 
01:27AM EDT


 

Airport Tracker/Info


-or-


 

Live Flight TrackerFlight Track Log ✈ VOZ1167 ✈ 17-Jul-2013 ✈ YSSY / SYD - YCFS

Flight Track Log - Related Links

Times and Time Zones

All times are in EDT time to prevent confusion due to time zone crossing. See the VOZ1167 flight status page for this flight to view local times or setup timezone preferences in your user account.

Time Position Orientation Groundspeed Altitude Reporting Facility
EDT Latitude Longitude Course Direction KTS MPH feet Rate Location/Type
12:50AM -33.9370 151.1780 288° West 2 2  Level FlightAware
12:53AM -33.9380 151.1780 180° South 4 5 60 Level FlightAware
12:54AM -33.9400 151.1780 180° South 14 16 60 Level FlightAware
12:54AM -33.9410 151.1780 180° South 16 18 120 Level FlightAware
12:55AM -33.9430 151.1790 157° South 20 23 120 Level FlightAware
12:55AM -33.9470 151.1790 180° South 21 24 120 Level FlightAware
12:56AM -33.9480 151.1800 140° Southeast 25 29 180 Level FlightAware
12:56AM -33.9510 151.1800 180° South 16 18 180 Level FlightAware
12:56AM -33.9510 151.1810 90° East 17 20 240 Level FlightAware
12:57AM -33.9510 151.1830 90° East 23 26 240 Level FlightAware
12:57AM -33.9500 151.1840 40° Northeast 22 25 240 Level FlightAware
12:57AM -33.9500 151.1870 90° East 18 21 300 Level FlightAware
12:58AM -33.9500 151.1890 90° East 13 15 420 Level FlightAware
12:58AM -33.9590 151.1910 170° South 125 144 600 Level FlightAware
12:59AM -33.9800 151.1970 167° South 159 183 600 1,320 Climbing FlightAware
12:59AM -33.9850 151.2040 131° Southeast 166 191 900 1,560 Climbing FlightAware
12:59AM -33.9920 151.2210 116° Southeast 187 215 1,400 1,560 Climbing FlightAware
01:00AM -34.0060 151.2460 124° Southeast 229 264 2,100 1,620 Climbing FlightAware
01:00AM -34.0110 151.2590 115° Southeast 241 277 2,400 1,800 Climbing FlightAware
01:00AM -34.0050 151.2920 78° East 262 302 3,200 2,520 Climbing FlightAware
01:00AM -33.9910 151.3100 47° Northeast 266 306 4,100 3,180 Climbing FlightAware
01:01AM -33.9670 151.3310 36° Northeast 275 316 5,300 3,180 Climbing FlightAware
01:01AM -33.9400 151.3580 40° Northeast 275 316 7,000 3,180 Climbing FlightAware
01:02AM -33.9150 151.3820 39° Northeast 282 325 8,300 3,600 Climbing FlightAware
01:02AM -33.8910 151.4050 39° Northeast 285 328 9,800 3,360 Climbing FlightAware
01:03AM -33.8390 151.4550 39° Northeast 313 360 12,000 3,060 Climbing FlightAware
01:04AM -33.7900 151.5010 38° Northeast 330 380 14,200 3,660 Climbing FlightAware
01:04AM -33.7526 151.5363 38° Northeast 341 392 16,300 3,600 Climbing Aus ATC (RADAR)
01:04AM -33.7350 151.5530 38° Northeast 348 400 16,900 2,880 Climbing FlightAware
01:05AM -33.6820 151.6030 38° Northeast 358 412 19,000 3,300 Climbing FlightAware
01:05AM -33.6748 151.6097 38° Northeast 363 418 19,400 2,760 Climbing Aus ATC (RADAR)
01:06AM -33.6280 151.6540 38° Northeast 376 433 20,800 2,520 Climbing FlightAware
01:06AM -33.5660 151.7010 32° Northeast 387 445 22,600 2,580 Climbing FlightAware
01:07AM -33.4970 151.7250 16° North 398 458 24,300 2,580 Climbing FlightAware
01:08AM -33.4260 151.7480 16° North 404 465 26,000 2,880 Climbing FlightAware
01:08AM -33.4129 151.7521 16° North 411 473 26,500 2,520 Climbing Aus ATC (RADAR)
01:08AM -33.3474 151.7730 16° North 420 483 27,700 1,620 Climbing Aus ATC (RADAR)
01:08AM -33.3450 151.7740 16° North 416 479 27,600 2,220 Descending FlightAware
01:09AM -33.2613 151.8008 16° North 429 494 29,400 2,340 Climbing Aus ATC (RADAR)
01:10AM -33.2060 151.8190 16° North 430 495 30,400 1,980 Climbing FlightAware
01:10AM -33.1210 151.8460 15° North 434 499 31,900 2,100 Climbing FlightAware
01:11AM -33.0392 151.8725 15° North 436 502 33,400 1,440 Climbing Aus ATC (RADAR)
01:11AM -33.0520 151.8680 15° North 430 495 33,000 1,860 Descending FlightAware
01:12AM -32.9706 151.8942 15° North 438 504 34,500 2,220 Climbing Aus ATC (RADAR)
01:12AM -32.9470 151.9020 15° North 432 497 34,600 840 Climbing FlightAware
01:12AM -32.8720 151.9257 15° North 442 509 35,200 600 Climbing Aus ATC (RADAR)
01:12AM -32.8650 151.9280 15° North 437 503 35,000 -300 Descending FlightAware
01:13AM -32.7870 151.9530 15° North 437 503 35,000  Level FlightAware
01:14AM -32.7040 151.9790 15° North 437 503 35,000  Level FlightAware
01:14AM -32.6370 152.0010 15° North 437 503 35,000 120 Level FlightAware
01:15AM -32.5438 152.0307 15° North 444 511 35,200  Climbing Aus ATC (RADAR)
01:15AM -32.5470 152.0290 15° North 446 513 35,000 -300 Descending FlightAware
01:16AM -32.4640 152.0560 15° North 446 513 35,000  Level FlightAware
01:16AM -32.3930 152.0780 15° North 447 514 35,000  Level FlightAware
01:17AM -32.3110 152.1050 16° North 446 513 35,000  Level FlightAware
01:18AM -32.2300 152.1300 15° North 448 516 35,000  Level FlightAware
01:18AM -32.1510 152.1550 15° North 448 516 35,000  Level FlightAware
01:19AM -32.0740 152.1790 15° North 448 516 35,000 120 Level FlightAware
01:20AM -32.0043 152.2011 15° North 446 513 35,200  Climbing Aus ATC (RADAR)
01:20AM -31.9800 152.2080 15° North 447 514 35,000 -720 Descending FlightAware
01:20AM -31.9060 152.2310 15° North 439 505 34,600 -600 Descending FlightAware
01:21AM -31.8952 152.2350 15° North 438 504 34,600 -2,520 Level Aus ATC (RADAR)
01:21AM -31.8180 152.2590 15° North 443 510 32,700 -2,760 Descending FlightAware
01:22AM -31.7380 152.2840 15° North 449 517 30,800 -2,640 Descending FlightAware
01:22AM -31.7267 152.2878 15° North 442 509 30,800 -3,900 Level Aus ATC (RADAR)
01:23AM -31.6520 152.3110 15° North 461 531 28,200 -3,360 Descending FlightAware
01:23AM -31.5728 152.3352 15° North 455 524 26,600 -2,940 Descending Aus ATC (RADAR)
01:23AM -31.5440 152.3440 15° North 455 524 25,700 -2,280 Descending FlightAware
01:24AM -31.4721 152.3668 15° North 443 510 24,700 -1,980 Descending Aus ATC (RADAR)
01:24AM -31.4630 152.3690 15° North 436 502 24,400 -2,160 Descending FlightAware
01:25AM -31.3773 152.3966 15° North 419 482 22,900 -1,140 Descending Aus ATC (RADAR)
01:25AM -31.3330 152.4100 15° North 417 480 23,000 60 Climbing FlightAware
01:26AM -31.2760 152.4280 15° North 417 480 23,000  Level FlightAware
01:27AM -31.2000 152.4520 15° North 417 480 23,000  Level FlightAware
01:27AM -31.1430 152.4700 15° North 417 480 23,000  Level FlightAware
01:28AM -31.0840 152.4880 15° North 417 480 23,000 -5,220 Level FlightAware
01:29AM -30.9520 152.5262 15° North 332 382 13,900 -5,280 Descending Aus ATC (RADAR)
01:30AM -30.8561 152.5632 18° North 342 394 11,500 -2,040 Descending Aus ATC (RADAR)
01:31AM -30.8046 152.6287 48° Northeast 326 375 10,100 -1,260 Descending Aus ATC (RADAR)
01:32AM -30.7668 152.6642 39° Northeast 299 344 9,700 -1,200 Descending Aus ATC (RADAR)
01:32AM -30.7227 152.7118 43° Northeast 280 322 8,500 -1,620 Descending Aus ATC (RADAR)
01:33AM -30.6941 152.7432 43° Northeast 275 316 7,700 -1,620 Descending Aus ATC (RADAR)
01:33AM -30.6605 152.7789 43° Northeast 271 312 6,800 -1,500 Descending Aus ATC (RADAR)
01:34AM -30.6332 152.8089 43° Northeast 267 307 6,100 -1,440 Descending Aus ATC (RADAR)
01:37AM -30.4937 152.9521 39° Northeast -2,280 Descending Aus ATC (Calculated)
01:37AM -30.4504 152.9932 38° Northeast  Level Aus ATC (Calculated)
01:39AM -30.3453 153.0876 38° Northeast  Level FlightAware Approximate
01:39AM -30.4072 153.0343 39° Northeast  Level Aus ATC (Calculated)
01:41AM -30.3206 153.1164 37° Northeast  Level Estimated
01:42AM -30.3206 153.1164 North  Level Estimated